createdAt,value
2019-02-03T00:00:14.502Z,77.23
2019-02-03T00:02:43.885Z,77.44
2019-02-03T00:05:13.352Z,77.96
2019-02-03T00:07:42.757Z,77.91
2019-02-03T00:10:12.177Z,77.55
2019-02-03T00:12:41.593Z,77.86
2019-02-03T00:15:11.428Z,78.10
2019-02-03T00:17:40.805Z,77.89
2019-02-03T00:20:11.194Z,78.06
2019-02-03T00:22:40.894Z,79.42
2019-02-03T00:25:10.337Z,79.90
2019-02-03T00:27:39.773Z,80.30
2019-02-03T00:30:10.404Z,80.90
2019-02-03T00:32:39.814Z,81.26
2019-02-03T00:35:11.063Z,81.10
2019-02-03T00:37:40.808Z,81.77
2019-02-03T00:40:11.615Z,82.29
2019-02-03T00:42:41.054Z,82.01
2019-02-03T00:45:11.779Z,82.62
2019-02-03T00:47:41.440Z,82.91
2019-02-03T00:50:12.023Z,83.03
2019-02-03T00:52:41.531Z,84.03
2019-02-03T00:55:13.592Z,84.34
2019-02-03T00:57:42.986Z,84.11
2019-02-03T01:00:14.563Z,83.94
2019-02-03T01:02:44.139Z,83.60
2019-02-03T01:05:16.251Z,85.02
2019-02-03T01:07:46.171Z,85.59
2019-02-03T01:10:18.263Z,86.01
2019-02-03T01:12:48.160Z,86.27
2019-02-03T01:15:17.545Z,86.06
2019-02-03T01:17:47.016Z,86.23
2019-02-03T01:20:17.635Z,86.36
2019-02-03T01:22:47.219Z,86.35
2019-02-03T01:25:17.061Z,86.29
2019-02-03T01:27:46.669Z,86.72
2019-02-03T01:30:18.452Z,87.72
2019-02-03T01:32:47.924Z,87.70
2019-02-03T01:35:17.554Z,87.55
2019-02-03T01:37:47.246Z,87.29
2019-02-03T01:40:18.190Z,87.99
2019-02-03T01:42:47.653Z,88.52
2019-02-03T01:45:19.374Z,88.37
2019-02-03T01:47:49.164Z,88.07
2019-02-03T01:50:18.760Z,87.51
2019-02-03T01:52:48.453Z,87.68
2019-02-03T01:55:23.352Z,87.37
2019-02-03T01:57:52.704Z,87.64
2019-02-03T02:00:24.687Z,87.63
2019-02-03T02:02:54.096Z,87.35
2019-02-03T02:05:23.527Z,87.25
2019-02-03T02:07:53.030Z,86.97
2019-02-03T02:10:25.134Z,86.59
2019-02-03T02:12:54.641Z,86.67
2019-02-03T02:15:24.536Z,86.16
2019-02-03T02:17:53.958Z,86.00
2019-02-03T02:20:27.987Z,86.29
2019-02-03T02:22:57.796Z,86.05
2019-02-03T02:25:27.409Z,86.36
2019-02-03T02:27:56.808Z,86.21
2019-02-03T02:30:26.909Z,86.38
2019-02-03T02:32:56.462Z,86.31
2019-02-03T02:35:25.977Z,86.52
2019-02-03T02:38:05.819Z,86.93
2019-02-03T02:40:26.667Z,86.66
2019-02-03T02:42:56.679Z,86.27
2019-02-03T02:45:26.073Z,86.18
2019-02-03T02:47:55.488Z,86.19
2019-02-03T02:50:28.089Z,86.14
2019-02-03T02:52:58.127Z,85.78
2019-02-03T02:55:27.505Z,85.70
2019-02-03T02:57:57.160Z,85.56
2019-02-03T03:00:26.841Z,85.22
2019-02-03T03:02:56.259Z,84.67
2019-02-03T03:05:25.785Z,84.55
2019-02-03T03:07:55.342Z,84.61
2019-02-03T03:10:25.167Z,84.35
2019-02-03T03:12:54.593Z,84.36
2019-02-03T03:15:24.197Z,84.15
2019-02-03T03:17:53.660Z,84.05
2019-02-03T03:20:23.366Z,84.08
2019-02-03T03:22:54.015Z,83.68
2019-02-03T03:25:23.954Z,83.68
2019-02-03T03:27:53.296Z,83.29
2019-02-03T03:30:24.689Z,83.09
2019-02-03T03:32:54.458Z,83.67
2019-02-03T03:35:24.735Z,84.40
2019-02-03T03:37:54.170Z,83.93
2019-02-03T03:40:25.675Z,83.47
2019-02-03T03:42:55.214Z,83.30
2019-02-03T03:45:25.054Z,83.15
2019-02-03T03:47:54.475Z,82.76
2019-02-03T03:50:23.867Z,82.80
2019-02-03T03:52:53.434Z,83.07
2019-02-03T03:55:23.123Z,83.26
2019-02-03T03:57:52.524Z,83.10
2019-02-03T04:00:24.237Z,83.04
2019-02-03T04:02:54.181Z,82.74
2019-02-03T04:05:24.147Z,82.73
2019-02-03T04:07:53.533Z,82.65
2019-02-03T04:10:24.289Z,82.80
2019-02-03T04:12:53.703Z,82.95
2019-02-03T04:15:23.534Z,83.14
2019-02-03T04:17:53.150Z,83.24
2019-02-03T04:20:27.608Z,83.85
2019-02-03T04:22:57.004Z,83.52
2019-02-03T04:25:26.705Z,84.09
2019-02-03T04:27:56.989Z,83.93
2019-02-03T04:30:27.286Z,83.80
2019-02-03T04:32:57.085Z,84.41
2019-02-03T04:35:26.471Z,84.06
2019-02-03T04:37:55.885Z,83.68
2019-02-03T04:40:25.437Z,83.45
2019-02-03T04:42:54.918Z,83.18
2019-02-03T04:45:24.397Z,82.97
2019-02-03T04:47:54.108Z,82.71
2019-02-03T04:50:23.908Z,82.90
2019-02-03T04:52:53.562Z,82.85
2019-02-03T04:55:23.460Z,82.46
2019-02-03T04:57:52.994Z,82.55
2019-02-03T05:00:24.227Z,82.86
2019-02-03T05:02:53.724Z,83.20
2019-02-03T05:05:23.397Z,82.83
2019-02-03T05:07:53.277Z,82.96
2019-02-03T05:10:22.757Z,82.78
2019-02-03T05:12:52.284Z,82.92
2019-02-03T05:15:23.601Z,82.73
2019-02-03T05:17:53.023Z,82.38
2019-02-03T05:20:27.316Z,82.39
2019-02-03T05:22:57.043Z,82.25
2019-02-03T05:25:26.584Z,82.25
2019-02-03T05:27:56.169Z,81.97
2019-02-03T05:30:28.350Z,81.81
2019-02-03T05:32:57.946Z,81.30
2019-02-03T05:35:27.449Z,81.32
2019-02-03T05:37:56.928Z,81.32
2019-02-03T05:40:26.849Z,81.62
2019-02-03T05:42:56.319Z,81.56
2019-02-03T05:45:25.827Z,81.48
2019-02-03T05:47:55.696Z,81.33
2019-02-03T05:50:25.177Z,81.23
2019-02-03T05:52:54.700Z,81.14
2019-02-03T05:55:24.164Z,80.87
2019-02-03T05:57:53.654Z,80.63
2019-02-03T06:00:31.342Z,80.19
2019-02-03T06:03:00.816Z,79.18
2019-02-03T06:05:30.310Z,78.73
2019-02-03T06:07:59.801Z,79.23
2019-02-03T06:10:29.770Z,78.26
2019-02-03T06:12:59.642Z,78.11
2019-02-03T06:15:29.113Z,77.83
2019-02-03T06:17:58.662Z,77.99
2019-02-03T06:20:28.316Z,77.90
2019-02-03T06:22:58.783Z,77.59
2019-02-03T06:25:28.265Z,77.64
2019-02-03T06:27:57.718Z,77.25
2019-02-03T06:31:16.174Z,77.64
2019-02-03T06:33:49.742Z,77.67
2019-02-03T06:36:20.107Z,77.62
2019-02-03T06:38:50.200Z,76.92
2019-02-03T06:41:19.719Z,77.02
2019-02-03T06:43:49.607Z,76.66
2019-02-03T06:46:46.926Z,76.93
2019-02-03T06:49:41.367Z,76.67
2019-02-03T06:52:10.909Z,77.35
2019-02-03T06:54:40.445Z,77.93
2019-02-03T06:57:09.975Z,77.67
2019-02-03T06:59:50.122Z,77.67
2019-02-03T07:02:10.624Z,77.37
2019-02-03T07:04:40.306Z,76.95
2019-02-03T07:07:09.886Z,77.40
2019-02-03T07:09:39.581Z,76.79
2019-02-03T07:12:09.047Z,77.01
2019-02-03T07:14:39.017Z,76.67
2019-02-03T07:17:08.492Z,76.21
2019-02-03T07:19:38.166Z,76.16
2019-02-03T07:22:07.678Z,75.96
2019-02-03T07:24:37.613Z,76.17
2019-02-03T07:27:07.091Z,75.79
2019-02-03T07:29:36.540Z,75.55
2019-02-03T07:32:06.631Z,75.56
2019-02-03T07:34:36.090Z,75.67
2019-02-03T07:37:06.007Z,75.65
2019-02-03T07:39:35.585Z,75.90
2019-02-03T07:42:05.503Z,76.15
2019-02-03T07:44:35.053Z,77.58
2019-02-03T07:47:04.546Z,77.65
2019-02-03T07:49:34.067Z,77.81
2019-02-03T07:52:03.952Z,78.75
2019-02-03T07:54:34.076Z,78.61
2019-02-03T07:57:03.860Z,78.36
2019-02-03T07:59:33.572Z,78.58
2019-02-03T08:02:03.050Z,78.41
2019-02-03T08:04:32.528Z,78.57
2019-02-03T08:07:02.079Z,77.80
2019-02-03T08:09:32.100Z,77.44
2019-02-03T08:12:01.710Z,77.16
2019-02-03T08:14:31.168Z,76.99
2019-02-03T08:17:00.702Z,76.93
2019-02-03T08:19:30.188Z,77.09
2019-02-03T08:21:59.663Z,76.82
2019-02-03T08:24:29.173Z,77.00
2019-02-03T08:26:58.675Z,75.82
2019-02-03T08:29:28.190Z,75.78
2019-02-03T08:31:57.754Z,75.44
2019-02-03T08:34:27.249Z,75.60
2019-02-03T08:36:57.097Z,75.04
2019-02-03T08:39:26.676Z,74.44
2019-02-03T08:41:56.177Z,74.14
2019-02-03T08:44:25.860Z,74.01
2019-02-03T08:46:55.371Z,74.19
2019-02-03T08:49:24.888Z,74.27
2019-02-03T08:51:54.458Z,74.38
2019-02-03T08:54:24.104Z,75.30
2019-02-03T08:56:53.589Z,75.29
2019-02-03T08:59:23.102Z,76.14
2019-02-03T09:01:52.572Z,76.26
2019-02-03T09:04:22.382Z,77.52
2019-02-03T09:06:51.850Z,77.13
2019-02-03T09:09:21.392Z,76.79
2019-02-03T09:11:50.877Z,76.33
2019-02-03T09:14:20.439Z,77.55
2019-02-03T09:16:49.942Z,77.34
2019-02-03T09:19:19.415Z,77.27
2019-02-03T09:21:48.935Z,77.87
2019-02-03T09:24:18.405Z,78.10
2019-02-03T09:26:48.203Z,78.68
2019-02-03T09:29:19.536Z,78.89
2019-02-03T09:31:49.190Z,79.88
2019-02-03T09:34:18.810Z,80.85
2019-02-03T09:36:48.265Z,79.43
2019-02-03T09:39:17.793Z,80.12
2019-02-03T09:41:47.307Z,79.86
2019-02-03T09:44:16.790Z,80.56
2019-02-03T09:46:46.287Z,80.72
2019-02-03T09:49:15.819Z,80.34
2019-02-03T09:51:45.300Z,80.30
2019-02-03T09:54:14.787Z,80.09
2019-02-03T09:56:44.526Z,80.76
2019-02-03T09:59:14.398Z,80.18
2019-02-03T10:01:44.075Z,79.87
2019-02-03T10:04:13.687Z,80.66
2019-02-03T10:06:43.205Z,81.28
2019-02-03T10:09:12.810Z,81.78
2019-02-03T10:11:42.378Z,81.88
2019-02-03T10:14:11.948Z,82.10
2019-02-03T10:16:41.434Z,83.06
2019-02-03T10:19:11.036Z,83.68
2019-02-03T10:21:40.551Z,83.57
2019-02-03T10:24:10.085Z,83.91
2019-02-03T10:26:40.045Z,83.66
2019-02-03T10:29:09.556Z,84.31
2019-02-03T10:31:39.109Z,84.36
2019-02-03T10:34:08.761Z,83.58
2019-02-03T10:36:38.484Z,84.07
2019-02-03T10:39:10.112Z,85.04
2019-02-03T10:41:39.734Z,84.75
2019-02-03T10:44:09.404Z,84.75
2019-02-03T10:46:38.869Z,84.52
2019-02-03T10:49:08.653Z,85.02
2019-02-03T10:51:38.289Z,84.58
2019-02-03T10:54:08.119Z,84.93
2019-02-03T10:56:37.679Z,86.07
2019-02-03T10:59:07.418Z,86.07
2019-02-03T11:01:37.031Z,86.15
2019-02-03T11:04:06.633Z,86.15
2019-02-03T11:06:36.324Z,85.81
2019-02-03T11:09:09.957Z,86.23
2019-02-03T11:11:39.456Z,85.64
2019-02-03T11:14:09.228Z,85.96
2019-02-03T11:16:38.997Z,86.37
2019-02-03T11:19:08.631Z,86.37
2019-02-03T11:21:38.204Z,86.39
2019-02-03T11:24:07.808Z,85.79
2019-02-03T11:26:37.771Z,85.79
2019-02-03T11:29:07.395Z,85.77
2019-02-03T11:31:36.876Z,86.11
2019-02-03T11:34:06.534Z,85.78
2019-02-03T11:36:36.123Z,86.04
2019-02-03T11:39:08.800Z,85.89
2019-02-03T11:41:48.629Z,85.89
2019-02-03T11:44:09.948Z,86.64
2019-02-03T11:46:39.456Z,86.41
2019-02-03T11:49:08.965Z,86.41
2019-02-03T11:51:38.995Z,85.83
2019-02-03T11:54:08.486Z,85.89
2019-02-03T11:56:38.117Z,85.89
2019-02-03T11:59:07.618Z,85.85
2019-02-03T12:01:37.105Z,85.85
2019-02-03T12:04:06.711Z,85.60
2019-02-03T12:06:36.172Z,85.88
2019-02-03T12:09:09.055Z,85.64
2019-02-03T12:11:38.551Z,85.64
2019-02-03T12:14:08.066Z,85.23
2019-02-03T12:16:37.544Z,85.23
2019-02-03T12:19:08.271Z,84.70
2019-02-03T12:21:37.743Z,84.81
2019-02-03T12:24:07.244Z,84.19
2019-02-03T12:26:36.748Z,84.21
2019-02-03T12:29:06.483Z,83.59
2019-02-03T12:31:35.982Z,83.59
2019-02-03T12:34:05.913Z,83.34
2019-02-03T12:36:35.694Z,82.74
2019-02-03T12:39:08.717Z,81.34
2019-02-03T12:41:38.311Z,81.50
2019-02-03T12:44:08.195Z,81.50
2019-02-03T12:46:38.987Z,80.61
2019-02-03T12:49:08.914Z,79.37
2019-02-03T12:51:40.058Z,79.37
2019-02-03T12:54:09.864Z,78.98
2019-02-03T12:56:39.459Z,79.50
2019-02-03T12:59:09.285Z,78.89
2019-02-03T13:01:38.788Z,78.89
2019-02-03T13:04:08.260Z,79.17
2019-02-03T13:06:37.792Z,79.78
2019-02-03T13:09:10.409Z,79.78
2019-02-03T13:11:39.955Z,79.71
2019-02-03T13:14:09.498Z,79.71
2019-02-03T13:16:39.091Z,79.94
2019-02-03T13:19:08.852Z,79.05
2019-02-03T13:21:38.403Z,79.05
2019-02-03T13:24:08.056Z,79.58
2019-02-03T13:26:37.557Z,79.25
2019-02-03T13:29:07.118Z,79.25
2019-02-03T13:31:36.688Z,79.21
2019-02-03T13:34:06.627Z,79.66
2019-02-03T13:36:36.538Z,79.86
2019-02-03T13:39:09.463Z,80.25
2019-02-03T13:41:39.238Z,80.25
2019-02-03T13:44:09.264Z,80.68
2019-02-03T13:46:39.157Z,81.32
2019-02-03T13:49:08.753Z,81.74
2019-02-03T13:51:38.662Z,81.74
2019-02-03T13:54:08.339Z,82.29
2019-02-03T13:56:38.049Z,82.80
2019-02-03T13:59:08.373Z,82.83
2019-02-03T14:01:38.297Z,83.30
2019-02-03T14:04:08.160Z,82.83
2019-02-03T14:06:37.751Z,82.21
2019-02-03T14:09:09.619Z,82.59
2019-02-03T14:11:40.004Z,81.99
2019-02-03T14:14:10.381Z,82.17
2019-02-03T14:16:40.178Z,82.17
2019-02-03T14:19:11.233Z,81.95
2019-02-03T14:21:41.025Z,82.06
2019-02-03T14:24:11.076Z,82.20
2019-02-03T14:26:40.870Z,82.20
2019-02-03T14:29:10.892Z,81.14
2019-02-03T14:31:40.528Z,80.53
2019-02-03T14:34:10.112Z,80.53
2019-02-03T14:36:39.766Z,80.84
2019-02-03T14:39:10.442Z,80.32
2019-02-03T14:41:40.007Z,81.62
2019-02-03T14:44:09.960Z,80.73
2019-02-03T14:46:39.615Z,81.43
2019-02-03T14:49:09.376Z,81.43
2019-02-03T14:51:39.176Z,80.96
2019-02-03T14:54:08.970Z,80.65
2019-02-03T14:56:38.798Z,81.04
2019-02-03T14:59:08.578Z,81.04
2019-02-03T15:01:38.446Z,81.54
2019-02-03T15:04:08.399Z,81.54
2019-02-03T15:06:37.961Z,80.58
2019-02-03T15:09:10.724Z,81.74
2019-02-03T15:11:40.340Z,81.95
2019-02-03T15:14:09.917Z,81.95
2019-02-03T15:16:39.747Z,82.11
2019-02-03T15:19:09.763Z,82.70
2019-02-03T15:21:39.682Z,82.70
2019-02-03T15:24:16.378Z,83.07
2019-02-03T15:26:40.717Z,83.07
2019-02-03T15:29:10.469Z,83.21
2019-02-03T15:31:40.276Z,82.94
2019-02-03T15:34:11.689Z,82.94
2019-02-03T15:36:41.566Z,83.85
2019-02-03T15:39:11.880Z,84.33
2019-02-03T15:41:41.603Z,84.33
2019-02-03T15:44:11.412Z,84.82
2019-02-03T15:46:41.034Z,84.43
2019-02-03T15:49:10.712Z,84.53
2019-02-03T15:51:40.559Z,84.75
2019-02-03T15:54:10.117Z,84.56
2019-02-03T15:56:39.774Z,84.88
2019-02-03T15:59:09.289Z,85.19
2019-02-03T16:01:38.817Z,85.19
2019-02-03T16:04:08.355Z,85.41
2019-02-03T16:06:37.927Z,85.41
2019-02-03T16:09:09.130Z,86.18
2019-02-03T16:11:38.645Z,86.06
2019-02-03T16:14:08.647Z,86.16
2019-02-03T16:16:38.235Z,86.16
2019-02-03T16:19:07.968Z,86.31
2019-02-03T16:21:37.543Z,86.19
2019-02-03T16:24:07.621Z,86.19
2019-02-03T16:26:37.218Z,86.51
2019-02-03T16:29:07.440Z,86.33
2019-02-03T16:31:37.176Z,86.40
2019-02-03T16:34:06.679Z,86.40
2019-02-03T16:36:36.222Z,86.60
2019-02-03T16:39:08.637Z,86.60
2019-02-03T16:41:38.234Z,86.91
2019-02-03T16:44:07.706Z,86.82
2019-02-03T16:46:37.222Z,86.49
2019-02-03T16:49:07.143Z,87.45
2019-02-03T16:51:36.729Z,87.45
2019-02-03T16:54:09.113Z,87.89
2019-02-03T16:56:38.706Z,87.81
2019-02-03T16:59:08.277Z,87.57
2019-02-03T17:01:37.803Z,87.57
2019-02-03T17:04:07.403Z,87.67
2019-02-03T17:06:36.923Z,87.38
2019-02-03T17:09:11.619Z,87.22
2019-02-03T17:11:41.956Z,87.23
2019-02-03T17:14:11.456Z,86.83
2019-02-03T17:16:41.008Z,87.09
2019-02-03T17:19:10.482Z,86.76
2019-02-03T17:21:40.133Z,86.93
2019-02-03T17:24:09.746Z,86.34
2019-02-03T17:26:39.425Z,86.34
2019-02-03T17:29:09.044Z,86.46
2019-02-03T17:31:38.920Z,85.98
2019-02-03T17:34:08.446Z,85.79
2019-02-03T17:36:38.095Z,86.09
2019-02-03T17:39:09.560Z,85.77
2019-02-03T17:41:39.458Z,85.47
2019-02-03T17:44:12.819Z,84.98
2019-02-03T17:46:40.205Z,85.12
2019-02-03T17:49:09.795Z,85.55
2019-02-03T17:51:39.517Z,83.97
2019-02-03T17:54:09.251Z,83.97
2019-02-03T17:56:38.869Z,84.63
2019-02-03T17:59:09.185Z,84.30
2019-02-03T18:01:38.737Z,84.30
2019-02-03T18:04:08.495Z,84.25
2019-02-03T18:06:38.082Z,83.76
2019-02-03T18:09:09.414Z,83.67
2019-02-03T18:11:38.944Z,82.95
2019-02-03T18:14:08.625Z,83.09
2019-02-03T18:16:38.248Z,83.25
2019-02-03T18:19:07.753Z,83.08
2019-02-03T18:21:37.411Z,83.45
2019-02-03T18:24:06.941Z,83.02
2019-02-03T18:26:36.600Z,83.02
2019-02-03T18:29:06.727Z,82.72
2019-02-03T18:31:36.459Z,82.31
2019-02-03T18:34:06.302Z,82.70
2019-02-03T18:36:35.782Z,82.87
2019-02-03T18:39:09.091Z,83.12
2019-02-03T18:41:38.619Z,82.97
2019-02-03T18:44:08.130Z,83.16
2019-02-03T18:46:37.663Z,82.69
2019-02-03T18:49:07.197Z,82.72
2019-02-03T18:51:36.732Z,82.34
2019-02-03T18:54:06.457Z,82.02
2019-02-03T18:56:36.153Z,80.81
2019-02-03T18:59:06.156Z,80.06
2019-02-03T19:01:35.619Z,79.62
2019-02-03T19:04:05.871Z,78.86
2019-02-03T19:06:36.138Z,78.20
2019-02-03T19:09:08.646Z,77.55
2019-02-03T19:11:38.424Z,77.69
2019-02-03T19:14:08.472Z,77.30
2019-02-03T19:16:38.093Z,77.59
2019-02-03T19:19:08.072Z,77.12
2019-02-03T19:21:37.719Z,76.35
2019-02-03T19:24:07.264Z,76.14
2019-02-03T19:26:36.941Z,75.68
2019-02-03T19:29:06.629Z,75.35
2019-02-03T19:31:36.178Z,74.40
2019-02-03T19:34:07.350Z,74.26
2019-02-03T19:36:36.896Z,73.18
2019-02-03T19:39:09.869Z,73.23
2019-02-03T19:41:39.374Z,72.34
2019-02-03T19:44:09.050Z,71.87
2019-02-03T19:46:38.584Z,71.39
2019-02-03T19:49:08.119Z,71.55
2019-02-03T19:51:38.026Z,71.37
2019-02-03T19:54:07.727Z,71.55
2019-02-03T19:56:37.340Z,70.86
2019-02-03T19:59:07.848Z,71.20
2019-02-03T20:01:37.734Z,71.27
2019-02-03T20:04:07.293Z,71.20
2019-02-03T20:06:37.517Z,70.53
2019-02-03T20:09:10.021Z,70.67
2019-02-03T20:11:39.603Z,69.97
2019-02-03T20:14:09.388Z,69.83
2019-02-03T20:16:38.958Z,70.13
2019-02-03T20:19:08.468Z,70.36
2019-02-03T20:21:37.958Z,69.68
2019-02-03T20:24:07.596Z,69.68
2019-02-03T20:26:37.455Z,69.57
2019-02-03T20:29:07.152Z,68.83
2019-02-03T20:31:36.640Z,69.06
2019-02-03T20:34:06.772Z,69.32
2019-02-03T20:36:36.286Z,68.76
2019-02-03T20:39:08.856Z,69.29
2019-02-03T20:41:38.662Z,69.26
2019-02-03T20:44:08.218Z,69.39
2019-02-03T20:46:37.747Z,70.17
2019-02-03T20:49:07.242Z,69.64
2019-02-03T20:51:36.907Z,69.56
2019-02-03T20:54:06.818Z,69.18
2019-02-03T20:56:36.303Z,69.54
2019-02-03T20:59:05.794Z,68.48
2019-02-03T21:01:35.533Z,68.96
2019-02-03T21:04:05.424Z,68.83
2019-02-03T21:06:35.026Z,69.33
2019-02-03T21:09:06.578Z,69.02
2019-02-03T21:11:36.076Z,68.97
2019-02-03T21:14:05.833Z,67.81
2019-02-03T21:16:35.341Z,68.33
2019-02-03T21:19:04.993Z,68.09
2019-02-03T21:21:34.863Z,67.82
2019-02-03T21:24:04.666Z,67.67
2019-02-03T21:26:34.278Z,67.47
2019-02-03T21:29:03.891Z,68.00
2019-02-03T21:31:33.483Z,67.53
2019-02-03T21:34:03.098Z,67.66
2019-02-03T21:36:32.776Z,67.21
2019-02-03T21:39:02.322Z,67.48
2019-02-03T21:41:31.925Z,67.44
2019-02-03T21:44:01.856Z,67.61
2019-02-03T21:46:31.428Z,67.86
2019-02-03T21:49:01.265Z,68.38
2019-02-03T21:51:30.983Z,67.78
2019-02-03T21:54:00.660Z,68.22
2019-02-03T21:56:30.235Z,68.14
2019-02-03T21:58:59.896Z,68.47
2019-02-03T22:01:29.663Z,68.33
2019-02-03T22:03:59.207Z,67.96
2019-02-03T22:06:28.691Z,68.14
2019-02-03T22:08:58.304Z,67.78
2019-02-03T22:11:27.879Z,68.05
2019-02-03T22:13:57.482Z,68.55
2019-02-03T22:16:27.407Z,68.23
2019-02-03T22:18:56.971Z,67.80
2019-02-03T22:21:26.695Z,67.94
2019-02-03T22:23:56.234Z,67.79
2019-02-03T22:26:25.770Z,67.62
2019-02-03T22:28:55.291Z,67.92
2019-02-03T22:31:24.909Z,67.86
2019-02-03T22:33:54.724Z,67.80
2019-02-03T22:36:24.218Z,68.15
2019-02-03T22:38:53.890Z,68.38
2019-02-03T22:41:23.452Z,69.24
2019-02-03T22:43:53.202Z,68.16
2019-02-03T22:46:22.792Z,68.12
2019-02-03T22:48:52.465Z,68.44
2019-02-03T22:51:21.986Z,68.23
2019-02-03T22:53:51.506Z,68.25
2019-02-03T22:56:21.092Z,68.76
2019-02-03T22:58:50.823Z,68.35
2019-02-03T23:01:28.087Z,68.75
2019-02-03T23:04:00.575Z,69.14
2019-02-03T23:06:31.360Z,68.98
2019-02-03T23:09:04.721Z,69.40
2019-02-03T23:11:34.190Z,69.89
2019-02-03T23:14:04.695Z,70.56
2019-02-03T23:16:34.603Z,70.23
2019-02-03T23:19:04.410Z,70.15
2019-02-03T23:21:34.263Z,70.81
2019-02-03T23:24:03.888Z,70.73
2019-02-03T23:26:33.688Z,70.34
2019-02-03T23:29:03.210Z,69.96
2019-02-03T23:31:32.799Z,70.00
2019-02-03T23:34:02.299Z,70.02
2019-02-03T23:36:31.822Z,69.76
2019-02-03T23:39:01.398Z,70.15
2019-02-03T23:41:30.915Z,70.39
2019-02-03T23:44:00.389Z,69.99
2019-02-03T23:46:32.009Z,70.37
2019-02-03T23:49:01.308Z,69.60
2019-02-03T23:51:31.307Z,70.26
2019-02-03T23:54:00.805Z,70.41
2019-02-03T23:56:30.379Z,69.86
2019-02-03T23:58:59.885Z,69.51
